Time;durP1;ratioP1;P1;durP2;ratioP2;P2;SDS_P1;SDS_P2;PMS_P1;PMS_P2;Temp;Humidity;BMP_temperature;BMP_pressure;BME280_temperature;BME280_humidity;BME280_pressure;Samples;Min_cycle;Max_cycle;Signal;HPM_P1;HPM_P2
2021/01/27 00:02:13;;;;;;;15.00;6.05;;;3.90;90.90;;;;;;5052389;28;20466;-90
2021/01/27 00:04:39;;;;;;;11.27;5.57;;;3.90;90.80;;;;;;5013050;28;20029;-90
2021/01/27 00:07:04;;;;;;;11.38;5.75;;;3.90;90.80;;;;;;5023590;28;20032;-89
2021/01/27 00:09:30;;;;;;;9.77;5.50;;;3.90;90.80;;;;;;5018544;28;20108;-90
2021/01/27 00:11:56;;;;;;;11.30;6.00;;;3.80;90.50;;;;;;5027905;28;20048;-90
2021/01/27 00:14:22;;;;;;;10.48;5.45;;;3.80;90.80;;;;;;5054103;28;20602;-89
2021/01/27 00:16:48;;;;;;;12.27;5.65;;;3.80;90.90;;;;;;5075717;28;20013;-89
2021/01/27 00:19:13;;;;;;;11.07;5.60;;;3.80;90.80;;;;;;5058746;28;20001;-89
2021/01/27 00:21:39;;;;;;;13.15;6.18;;;3.70;90.70;;;;;;5056386;28;20032;-90
2021/01/27 00:24:05;;;;;;;10.63;5.45;;;3.70;90.60;;;;;;5038018;28;20020;-91
2021/01/27 00:26:31;;;;;;;8.77;5.20;;;3.70;90.50;;;;;;5039449;28;20036;-90
2021/01/27 00:28:57;;;;;;;13.60;5.93;;;3.70;90.60;;;;;;5048815;28;20025;-89
2021/01/27 00:31:22;;;;;;;12.68;5.95;;;3.70;90.80;;;;;;5023666;28;20560;-91
2021/01/27 00:33:49;;;;;;;10.38;5.05;;;3.70;90.70;;;;;;5018039;28;20075;-89
2021/01/27 00:36:14;;;;;;;9.38;5.30;;;3.70;90.70;;;;;;5031780;28;20021;-89
2021/01/27 00:38:40;;;;;;;13.82;5.97;;;3.70;90.80;;;;;;4987623;28;20025;-89
2021/01/27 00:41:06;;;;;;;11.50;5.82;;;3.70;90.60;;;;;;5014208;28;20386;-89
2021/01/27 00:43:31;;;;;;;14.98;6.72;;;3.70;90.60;;;;;;4997874;28;20440;-90
2021/01/27 00:45:57;;;;;;;11.50;5.55;;;3.70;90.50;;;;;;5013529;28;20448;-89
2021/01/27 00:48:23;;;;;;;9.50;4.97;;;3.80;90.60;;;;;;4998224;28;20033;-89
2021/01/27 00:50:49;;;;;;;12.25;4.90;;;3.70;90.70;;;;;;5010752;28;20049;-90
2021/01/27 00:53:16;;;;;;;10.90;5.35;;;3.80;90.50;;;;;;5020152;28;20467;-90
2021/01/27 00:55:42;;;;;;;10.48;5.75;;;3.70;90.30;;;;;;5025954;28;20131;-90
2021/01/27 00:58:08;;;;;;;7.68;4.82;;;3.80;90.40;;;;;;5013931;28;20022;-90
2021/01/27 01:00:36;;;;;;;13.07;6.03;;;3.80;90.30;;;;;;5015441;28;20463;-90
2021/01/27 01:03:03;;;;;;;11.95;4.88;;;3.80;90.40;;;;;;5026977;28;20018;-90
2021/01/27 01:05:37;;;;;;;10.88;5.55;;;3.70;90.30;;;;;;5001354;28;20036;-90
2021/01/27 01:08:04;;;;;;;11.13;4.93;;;3.70;90.30;;;;;;5038776;28;20072;-90
2021/01/27 01:10:33;;;;;;;11.18;5.28;;;3.70;90.10;;;;;;4998374;28;20049;-90
2021/01/27 01:12:59;;;;;;;9.50;4.85;;;3.70;90.10;;;;;;5015533;28;20049;-90
2021/01/27 01:15:27;;;;;;;8.68;5.03;;;3.70;90.20;;;;;;4985268;28;20078;-90
2021/01/27 01:17:54;;;;;;;11.13;5.25;;;3.70;90.10;;;;;;5017890;28;20502;-90
2021/01/27 01:20:20;;;;;;;12.15;5.45;;;3.70;90.20;;;;;;5014990;28;20037;-89
2021/01/27 01:22:57;;;;;;;9.05;5.10;;;3.70;90.40;;;;;;5024956;28;20029;-90
2021/01/27 01:25:27;;;;;;;10.80;5.60;;;3.70;90.30;;;;;;5031803;28;20033;-90
2021/01/27 01:27:53;;;;;;;12.38;4.93;;;3.60;90.20;;;;;;5017740;28;20028;-89
2021/01/27 01:30:25;;;;;;;9.45;4.72;;;3.60;90.50;;;;;;5036878;28;20033;-90
2021/01/27 01:32:54;;;;;;;10.40;4.90;;;3.60;90.40;;;;;;5027261;28;20010;-90
2021/01/27 01:35:21;;;;;;;10.38;4.50;;;3.60;90.50;;;;;;5035472;28;20030;-90
2021/01/27 01:37:47;;;;;;;7.72;4.20;;;3.60;90.40;;;;;;5015413;28;20061;-90
2021/01/27 01:40:24;;;;;;;7.25;4.18;;;3.60;90.50;;;;;;4994505;28;20040;-90
2021/01/27 01:43:04;;;;;;;10.32;4.80;;;3.70;90.60;;;;;;5022011;28;20301;-90
2021/01/27 01:45:34;;;;;;;8.68;4.55;;;3.70;90.60;;;;;;5021560;28;20033;-90
2021/01/27 01:48:07;;;;;;;9.15;4.25;;;3.60;90.50;;;;;;5022196;28;20021;-90
2021/01/27 01:50:33;;;;;;;10.90;4.32;;;3.70;90.60;;;;;;5009074;28;20036;-90
2021/01/27 01:52:59;;;;;;;8.63;4.20;;;3.70;90.60;;;;;;5053371;28;20092;-90
2021/01/27 01:55:26;;;;;;;9.30;4.55;;;3.70;90.70;;;;;;5036092;28;20496;-90
2021/01/27 01:57:54;;;;;;;8.45;4.20;;;3.60;90.60;;;;;;5017126;28;20034;-90
2021/01/27 02:00:22;;;;;;;8.70;4.20;;;3.70;90.80;;;;;;5016899;28;20052;-90
2021/01/27 02:02:48;;;;;;;9.68;4.15;;;3.70;90.80;;;;;;5000850;28;20025;-89
2021/01/27 02:05:20;;;;;;;8.43;4.65;;;3.60;90.70;;;;;;5014017;28;20041;-89
2021/01/27 02:07:47;;;;;;;7.72;4.50;;;3.60;90.90;;;;;;5016838;28;20239;-90
2021/01/27 02:10:15;;;;;;;8.50;4.38;;;3.60;91.10;;;;;;5034287;28;20082;-90
2021/01/27 02:13:16;;;;;;;8.05;5.18;;;3.60;90.90;;;;;;5033242;28;20032;-90
2021/01/27 02:15:59;;;;;;;7.53;4.38;;;3.60;91.20;;;;;;4986252;28;20115;-90
2021/01/27 02:19:09;;;;;;;7.43;4.03;;;3.60;91.30;;;;;;5016763;28;20064;-90
2021/01/27 02:21:53;;;;;;;8.63;3.97;;;3.50;91.40;;;;;;5016673;28;20104;-90
2021/01/27 02:25:08;;;;;;;9.80;4.45;;;3.50;91.30;;;;;;5016958;28;20556;-90
2021/01/27 02:27:55;;;;;;;9.20;4.10;;;3.50;91.70;;;;;;4940459;29;20027;-90
2021/01/27 02:30:46;;;;;;;7.20;4.00;;;3.40;91.70;;;;;;4953838;28;20608;-89
2021/01/27 02:33:30;;;;;;;7.93;4.50;;;3.40;91.80;;;;;;5022313;28;20034;-90
2021/01/27 02:36:15;;;;;;;8.85;3.55;;;3.40;92.00;;;;;;5029780;28;20036;-90
2021/01/27 02:38:56;;;;;;;10.23;4.10;;;3.40;92.00;;;;;;5013902;28;20037;-91
2021/01/27 02:41:29;;;;;;;10.05;3.42;;;3.40;92.10;;;;;;5034596;28;20466;-90
2021/01/27 02:43:58;;;;;;;7.47;3.83;;;3.40;92.20;;;;;;5015934;28;20442;-91
2021/01/27 02:46:36;;;;;;;6.43;3.70;;;3.40;92.10;;;;;;5034085;28;20029;-90
2021/01/27 02:49:11;;;;;;;11.07;4.28;;;3.40;92.20;;;;;;5016567;28;20025;-90
2021/01/27 02:51:43;;;;;;;10.60;4.57;;;3.30;92.30;;;;;;5016267;28;20049;-90
2021/01/27 02:54:15;;;;;;;8.35;4.32;;;3.30;92.20;;;;;;5015898;28;20382;-90
2021/01/27 02:57:13;;;;;;;8.40;3.50;;;3.30;92.40;;;;;;5016115;28;20026;-90
2021/01/27 02:59:42;;;;;;;7.35;3.38;;;3.30;92.40;;;;;;4999025;28;20033;-89
2021/01/27 03:02:14;;;;;;;5.20;3.15;;;3.30;92.50;;;;;;5015546;28;20083;-89
2021/01/27 03:04:48;;;;;;;7.85;3.58;;;3.30;92.50;;;;;;5019172;28;20470;-89
2021/01/27 03:07:22;;;;;;;6.95;2.95;;;3.30;92.60;;;;;;5033674;28;20048;-90
2021/01/27 03:10:11;;;;;;;6.25;3.03;;;3.30;92.60;;;;;;5009639;28;20125;-90
2021/01/27 03:12:40;;;;;;;6.05;3.17;;;3.20;92.60;;;;;;5011382;28;20028;-90
2021/01/27 03:15:09;;;;;;;5.50;2.70;;;3.20;92.70;;;;;;5015458;28;20029;-90
2021/01/27 03:17:35;;;;;;;7.70;2.92;;;3.30;92.80;;;;;;5015471;28;20037;-89
2021/01/27 03:20:09;;;;;;;6.50;3.25;;;3.30;92.70;;;;;;5015100;28;20100;-90
2021/01/27 03:22:44;;;;;;;4.53;2.60;;;3.30;92.80;;;;;;5033404;28;20025;-90
2021/01/27 03:25:32;;;;;;;4.47;2.70;;;3.30;92.70;;;;;;5018791;28;20053;-90
2021/01/27 03:28:18;;;;;;;9.73;3.30;;;3.20;92.80;;;;;;5015367;28;20029;-90
2021/01/27 03:30:44;;;;;;;7.57;2.75;;;3.20;92.90;;;;;;5024952;28;20025;-90
2021/01/27 03:33:17;;;;;;;4.80;2.50;;;3.30;92.90;;;;;;5016720;28;20033;-90
2021/01/27 03:35:48;;;;;;;3.95;2.50;;;3.30;92.90;;;;;;5033464;28;20100;-91
2021/01/27 03:38:23;;;;;;;5.65;2.75;;;3.20;92.70;;;;;;5028176;28;20529;-89
2021/01/27 03:40:54;;;;;;;5.22;2.55;;;3.20;92.80;;;;;;5033149;28;20494;-90
2021/01/27 03:43:26;;;;;;;;;;;3.20;92.90;;;;;;5033580;28;20034;-91
2021/01/27 03:46:21;;;;;;;6.07;2.75;;;3.20;93.00;;;;;;5032715;28;19916;-89
2021/01/27 03:48:55;;;;;;;5.22;2.70;;;3.20;93.20;;;;;;5007686;28;20061;-91
2021/01/27 03:51:22;;;;;;;4.75;2.25;;;3.10;93.50;;;;;;5032527;28;20029;-90
2021/01/27 03:53:50;;;;;;;5.28;2.65;;;3.10;93.60;;;;;;5032101;28;20038;-90
2021/01/27 03:56:24;;;;;;;5.32;2.72;;;3.10;93.70;;;;;;5016704;28;20049;-90
2021/01/27 03:58:50;;;;;;;5.55;3.20;;;3.10;93.90;;;;;;5016584;28;20112;-90
2021/01/27 04:01:21;;;;;;;5.72;3.00;;;3.00;93.80;;;;;;5046667;28;20037;-90
2021/01/27 04:03:53;;;;;;;5.32;3.13;;;3.00;93.90;;;;;;5039101;28;20104;-91
2021/01/27 04:06:19;;;;;;;7.40;2.88;;;3.00;94.00;;;;;;5038991;28;20013;-89
2021/01/27 04:08:45;;;;;;;5.57;2.83;;;3.00;94.20;;;;;;5053819;28;20030;-90
2021/01/27 04:11:11;;;;;;;6.70;2.90;;;3.00;94.30;;;;;;5024205;28;20029;-89
2021/01/27 04:13:37;;;;;;;5.32;2.75;;;2.90;94.30;;;;;;5033614;28;20037;-89
2021/01/27 04:16:03;;;;;;;6.55;2.97;;;2.90;94.30;;;;;;5018591;28;20037;-90
2021/01/27 04:18:29;;;;;;;5.60;2.90;;;2.90;94.40;;;;;;5008902;28;20056;-90
2021/01/27 04:20:55;;;;;;;5.70;2.85;;;3.00;94.40;;;;;;5020706;28;20028;-90
2021/01/27 04:23:21;;;;;;;5.88;3.10;;;3.00;94.30;;;;;;4998327;28;20025;-90
2021/01/27 04:25:47;;;;;;;5.97;2.80;;;3.00;94.30;;;;;;5032259;28;20038;-90
2021/01/27 04:28:13;;;;;;;6.63;3.03;;;3.00;94.40;;;;;;5011962;28;20029;-91
2021/01/27 04:30:39;;;;;;;7.60;3.92;;;3.00;94.20;;;;;;5003222;28;20564;-90
2021/01/27 04:33:08;;;;;;;5.55;2.80;;;3.10;94.10;;;;;;4997797;28;20026;-90
2021/01/27 04:35:34;;;;;;;5.88;3.47;;;3.10;94.20;;;;;;5027376;28;20030;-91
2021/01/27 04:38:01;;;;;;;7.07;3.60;;;3.10;94.20;;;;;;5015361;28;20057;-90
2021/01/27 04:40:28;;;;;;;5.53;2.70;;;3.10;94.20;;;;;;5036691;28;20057;-89
2021/01/27 04:42:55;;;;;;;5.07;2.97;;;3.10;94.20;;;;;;5036222;28;20032;-90
2021/01/27 04:45:21;;;;;;;5.28;2.92;;;3.10;94.10;;;;;;5003591;28;20034;-91
2021/01/27 04:47:58;;;;;;;9.88;3.45;;;3.10;94.20;;;;;;5035384;28;20064;-91
2021/01/27 04:50:45;;;;;;;5.72;3.20;;;3.10;94.30;;;;;;5031410;28;20017;-88
2021/01/27 04:53:29;;;;;;;5.57;3.17;;;3.10;94.40;;;;;;5036072;28;20434;-89
2021/01/27 04:56:16;;;;;;;8.57;3.38;;;3.10;94.40;;;;;;5023504;28;20443;-88
2021/01/27 04:59:15;;;;;;;7.43;3.30;;;3.10;94.30;;;;;;5015349;28;20025;-90
2021/01/27 05:01:52;;;;;;;6.07;3.08;;;3.10;94.60;;;;;;5015210;28;20030;-90
2021/01/27 05:04:55;;;;;;;7.50;3.30;;;3.10;94.60;;;;;;5012461;28;20504;-90
2021/01/27 05:07:36;;;;;;;6.82;3.33;;;3.10;94.70;;;;;;5012628;28;20044;-90
2021/01/27 05:10:04;;;;;;;6.20;3.53;;;3.10;94.70;;;;;;5035588;28;20057;-90
2021/01/27 05:12:39;;;;;;;5.40;3.50;;;3.10;94.80;;;;;;5017854;28;20508;-89
2021/01/27 05:15:07;;;;;;;4.97;2.90;;;3.00;94.80;;;;;;5025758;28;20113;-90
2021/01/27 05:17:32;;;;;;;8.70;3.72;;;3.10;94.80;;;;;;5028355;28;20033;-90
2021/01/27 05:19:58;;;;;;;5.05;3.17;;;3.10;94.80;;;;;;4985192;28;20025;-90
2021/01/27 05:22:26;;;;;;;5.60;3.40;;;3.00;94.90;;;;;;5001656;28;20031;-90
2021/01/27 05:24:52;;;;;;;6.60;3.60;;;3.00;95.00;;;;;;5018886;28;20021;-90
2021/01/27 05:27:29;;;;;;;5.75;3.72;;;3.10;95.10;;;;;;4994504;28;20021;-90
2021/01/27 05:30:16;;;;;;;8.77;3.88;;;3.10;95.20;;;;;;5023619;28;20026;-89
2021/01/27 05:32:56;;;;;;;8.38;4.60;;;3.10;95.30;;;;;;5017291;28;20060;-89
2021/01/27 05:35:29;;;;;;;8.18;4.43;;;3.00;95.60;;;;;;5026337;28;20112;-90
2021/01/27 05:37:57;;;;;;;6.63;3.97;;;3.00;95.80;;;;;;5048713;28;20103;-89
2021/01/27 05:40:35;;;;;;;8.60;4.22;;;2.90;96.20;;;;;;5020507;28;20053;-90
2021/01/27 05:43:22;;;;;;;8.43;4.88;;;2.90;96.20;;;;;;5040636;28;20065;-90
2021/01/27 05:45:49;;;;;;;6.95;4.35;;;2.90;96.30;;;;;;5017102;28;20120;-90
2021/01/27 05:48:34;;;;;;;7.03;4.13;;;2.90;96.40;;;;;;5025847;28;20038;-90
2021/01/27 05:51:02;;;;;;;9.13;4.57;;;2.90;96.50;;;;;;5037179;28;20021;-91
2021/01/27 05:53:30;;;;;;;8.65;4.93;;;2.80;96.50;;;;;;5025180;28;20030;-91
2021/01/27 05:56:05;;;;;;;10.40;5.40;;;2.80;96.70;;;;;;5017145;28;20041;-91
2021/01/27 05:58:33;;;;;;;7.10;4.60;;;2.80;96.70;;;;;;5017132;28;20036;-91
2021/01/27 06:01:15;;;;;;;10.90;5.25;;;2.80;96.70;;;;;;5017761;28;20048;-90
2021/01/27 06:04:10;;;;;;;6.53;4.47;;;2.80;96.80;;;;;;5015096;28;20026;-92
2021/01/27 06:06:45;;;;;;;7.47;4.47;;;2.80;96.80;;;;;;4993265;28;20030;-91
2021/01/27 06:09:12;;;;;;;7.57;4.65;;;2.80;96.80;;;;;;4995482;28;20373;-92
2021/01/27 06:11:38;;;;;;;7.72;4.85;;;2.80;96.90;;;;;;4995639;28;20026;-92
2021/01/27 06:14:11;;;;;;;9.05;5.38;;;2.80;96.90;;;;;;4999313;28;20036;-92
2021/01/27 06:16:45;;;;;;;10.82;5.80;;;2.80;97.10;;;;;;5017162;28;20033;-93
2021/01/27 06:19:25;;;;;;;9.50;5.53;;;2.70;97.20;;;;;;5017169;28;20015;-92
2021/01/27 06:22:10;;;;;;;7.97;5.40;;;2.70;97.40;;;;;;5017694;28;20266;-92
2021/01/27 06:24:52;;;;;;;10.10;6.57;;;2.70;97.40;;;;;;5022915;28;20029;-93
2021/01/27 06:27:50;;;;;;;11.57;6.80;;;2.70;97.50;;;;;;5016955;28;20021;-93
2021/01/27 06:30:34;;;;;;;9.15;6.28;;;2.70;97.60;;;;;;5033198;28;20018;-92
2021/01/27 06:33:34;;;;;;;10.05;6.53;;;2.70;97.80;;;;;;5022957;28;20017;-91
2021/01/27 06:36:07;;;;;;;10.57;7.28;;;2.70;97.80;;;;;;5016162;28;20025;-92
2021/01/27 06:39:00;;;;;;;10.05;6.57;;;2.70;97.90;;;;;;5033359;28;20029;-93
2021/01/27 06:41:42;;;;;;;9.30;6.60;;;2.70;97.90;;;;;;5013628;28;20033;-93
2021/01/27 06:44:28;;;;;;;10.45;6.55;;;2.70;97.90;;;;;;5030725;28;20504;-93
2021/01/27 06:47:31;;;;;;;10.52;6.75;;;2.80;97.90;;;;;;5016817;28;20022;-93
2021/01/27 06:50:15;;;;;;;12.35;6.85;;;2.80;97.90;;;;;;5002742;28;20036;-93
2021/01/27 06:53:05;;;;;;;9.13;6.82;;;2.80;97.80;;;;;;5032997;28;20018;-94
2021/01/27 06:55:46;;;;;;;9.93;6.50;;;2.80;97.80;;;;;;5038374;28;20040;-93
2021/01/27 06:58:36;;;;;;;9.70;7.25;;;2.80;97.80;;;;;;5018076;28;20040;-93
2021/01/27 07:01:20;;;;;;;10.35;7.55;;;2.80;97.70;;;;;;5015957;28;20025;-94
2021/01/27 07:04:03;;;;;;;11.00;7.18;;;2.80;97.80;;;;;;5012869;28;20026;-93
2021/01/27 07:06:31;;;;;;;12.95;7.05;;;2.80;97.80;;;;;;5030516;28;20017;-94
2021/01/27 07:09:09;;;;;;;12.00;7.53;;;2.80;97.70;;;;;;5016363;28;20054;-95
2021/01/27 07:12:15;;;;;;;13.07;9.20;;;2.80;97.80;;;;;;5013277;28;20504;-93
2021/01/27 07:15:25;;;;;;;15.90;9.40;;;2.70;97.90;;;;;;5016087;28;20022;-94
2021/01/27 07:18:05;;;;;;;10.68;7.95;;;2.70;98.10;;;;;;5011010;28;20026;-92
2021/01/27 07:20:39;;;;;;;12.43;9.32;;;2.70;98.10;;;;;;5027489;28;20022;-93
2021/01/27 07:23:24;;;;;;;15.25;10.43;;;2.70;98.10;;;;;;5011554;28;20424;-93
2021/01/27 07:26:01;;;;;;;16.10;9.73;;;2.60;98.30;;;;;;5013022;28;20108;-94
2021/01/27 07:28:37;;;;;;;14.60;9.98;;;2.60;98.30;;;;;;5023605;28;20021;-94
2021/01/27 07:31:14;;;;;;;14.05;10.63;;;2.70;98.40;;;;;;5031898;28;20022;-92
2021/01/27 07:34:03;;;;;;;14.45;9.82;;;2.60;98.50;;;;;;5013113;28;20513;-94
2021/01/27 07:36:56;;;;;;;14.35;10.07;;;2.60;98.60;;;;;;5033373;28;20045;-94
2021/01/27 07:39:34;;;;;;;14.40;10.40;;;2.60;98.60;;;;;;5038695;28;20033;-93
2021/01/27 07:42:37;;;;;;;15.75;11.02;;;2.60;98.70;;;;;;5023131;28;20029;-93
2021/01/27 07:45:21;;;;;;;16.17;10.82;;;2.60;98.70;;;;;;5000168;28;20464;-91
2021/01/27 07:48:06;;;;;;;15.13;10.98;;;2.60;98.80;;;;;;5039578;28;20022;-94
2021/01/27 07:50:32;;;;;;;16.60;12.00;;;2.60;98.80;;;;;;5049135;28;20032;-92
2021/01/27 07:53:04;;;;;;;16.23;11.52;;;2.60;98.90;;;;;;5044339;28;20028;-90
2021/01/27 07:55:48;;;;;;;20.83;13.18;;;2.60;99.00;;;;;;5052282;28;20044;-91
2021/01/27 07:58:40;;;;;;;17.17;12.55;;;2.60;99.20;;;;;;5037770;28;20055;-92
2021/01/27 08:01:09;;;;;;;;;;;2.60;99.20;;;;;;5048417;28;20072;-91
2021/01/27 08:03:40;;;;;;;17.58;12.57;;;2.60;99.30;;;;;;5048141;28;20483;-90
2021/01/27 08:06:08;;;;;;;;;;;2.60;99.20;;;;;;5044196;28;20077;-90
2021/01/27 08:09:02;;;;;;;17.20;11.63;;;2.70;99.30;;;;;;5035389;28;19901;-92
2021/01/27 08:11:39;;;;;;;22.63;12.85;;;2.70;99.30;;;;;;5018029;28;20359;-91
2021/01/27 08:14:10;;;;;;;19.77;13.23;;;2.70;99.30;;;;;;5031290;28;20120;-92
2021/01/27 08:16:44;;;;;;;18.88;13.32;;;2.70;99.30;;;;;;5031208;28;20013;-93
2021/01/27 08:19:15;;;;;;;15.88;11.55;;;2.80;99.30;;;;;;5020679;28;20029;-91
2021/01/27 08:21:47;;;;;;;20.15;12.27;;;2.80;99.30;;;;;;5024127;28;20026;-92
2021/01/27 08:24:37;;;;;;;19.13;12.63;;;2.90;99.30;;;;;;5031256;28;20029;-88
2021/01/27 08:27:17;;;;;;;17.23;12.60;;;2.90;99.20;;;;;;5035618;28;20537;-91
2021/01/27 08:30:04;;;;;;;17.13;12.00;;;2.90;99.20;;;;;;5021663;28;20121;-93
2021/01/27 08:32:35;;;;;;;20.63;12.93;;;2.90;99.30;;;;;;5021720;28;20065;-94
2021/01/27 08:35:31;;;;;;;17.60;12.70;;;2.90;99.30;;;;;;5014731;28;20422;-92
2021/01/27 08:38:25;;;;;;;17.90;12.88;;;3.00;99.30;;;;;;5017220;28;20058;-92
2021/01/27 08:40:53;;;;;;;19.98;13.52;;;3.00;99.20;;;;;;5002199;28;20024;-92
2021/01/27 08:43:39;;;;;;;18.30;12.73;;;3.10;99.20;;;;;;5014598;28;20026;-92
2021/01/27 08:46:31;;;;;;;19.98;13.30;;;3.10;99.10;;;;;;5002735;28;20017;-94
2021/01/27 08:48:59;;;;;;;17.15;12.45;;;3.10;99.20;;;;;;5006940;28;20067;-94
2021/01/27 08:51:48;;;;;;;17.00;11.95;;;3.20;99.20;;;;;;5006768;28;20022;-94
2021/01/27 08:54:59;;;;;;;21.55;13.85;;;3.20;99.10;;;;;;4996635;28;20041;-92
2021/01/27 08:57:40;;;;;;;17.08;11.77;;;3.20;99.10;;;;;;5009847;28;20029;-92
2021/01/27 09:00:24;;;;;;;18.38;12.15;;;3.20;99.20;;;;;;5011949;28;20034;-94
2021/01/27 09:03:02;;;;;;;15.02;10.75;;;3.20;99.20;;;;;;5035826;28;20030;-93
2021/01/27 09:05:42;;;;;;;18.80;12.13;;;3.30;99.10;;;;;;5009339;28;20046;-94
2021/01/27 09:08:11;;;;;;;16.98;11.60;;;3.30;99.10;;;;;;5012366;28;20530;-94
2021/01/27 09:10:53;;;;;;;;;;;;;;;;;;;;;
2021/01/27 09:13:46;;;;;;;;;;;;;;;;;;;;;
2021/01/27 09:16:20;;;;;;;17.75;11.32;;;3.30;99.10;;;;;;5026655;28;20036;-93
2021/01/27 09:19:08;;;;;;;17.33;11.30;;;3.30;99.50;;;;;;5012314;28;20025;-92
2021/01/27 09:21:44;;;;;;;17.08;11.02;;;3.40;99.20;;;;;;5003779;28;20026;-92
2021/01/27 09:24:24;;;;;;;15.70;10.90;;;3.40;99.30;;;;;;5014311;28;20116;-92
2021/01/27 09:27:12;;;;;;;17.10;11.43;;;3.50;99.20;;;;;;5017455;28;20071;-93
2021/01/27 09:30:07;;;;;;;;;;;;;;;;;;;;;
2021/01/27 09:32:46;;;;;;;16.88;11.02;;;3.50;99.20;;;;;;5023248;28;20731;-92
2021/01/27 09:35:23;;;;;;;17.10;10.90;;;3.50;99.20;;;;;;5015745;28;20029;-93
2021/01/27 09:41:15;;;;;;;;;;;;;;;;;;;;;
2021/01/27 09:43:51;;;;;;;16.73;10.57;;;3.60;99.20;;;;;;5055137;28;20019;-93
2021/01/27 09:47:03;;;;;;;;;;;;;;;;;;;;;
2021/01/27 09:49:43;;;;;;;;;;;;;;;;;;;;;
2021/01/27 09:52:13;;;;;;;21.13;12.35;;;3.60;99.20;;;;;;5054560;28;20029;-92
2021/01/27 09:55:00;;;;;;;;;;;;;;;;;;;;;
2021/01/27 09:57:31;;;;;;;19.75;12.32;;;3.70;99.30;;;;;;5055496;28;20033;-93
2021/01/27 10:00:02;;;;;;;20.38;12.90;;;3.70;99.30;;;;;;5037869;28;20025;-91
2021/01/27 10:02:33;;;;;;;22.88;13.57;;;3.70;99.30;;;;;;5037128;28;20043;-91
2021/01/27 10:05:27;;;;;;;18.25;11.35;;;3.70;99.40;;;;;;5035947;28;20483;-90
2021/01/27 10:08:02;;;;;;;18.73;12.27;;;3.70;99.40;;;;;;5035520;28;20074;-91
2021/01/27 10:10:39;;;;;;;22.52;13.80;;;3.70;99.40;;;;;;5036806;28;20037;-91
2021/01/27 10:13:45;;;;;;;19.95;12.90;;;3.70;99.40;;;;;;5036758;28;20063;-89
2021/01/27 10:16:14;;;;;;;25.83;13.95;;;3.70;99.50;;;;;;5034228;28;20025;-89
2021/01/27 10:26:43;;;;;;;28.42;16.17;;;3.80;99.50;;;;;;5058625;28;20110;-95
2021/01/27 10:29:10;;;;;;;20.15;13.30;;;3.80;99.60;;;;;;5020288;28;20024;-89
2021/01/27 10:31:37;;;;;;;26.77;14.65;;;3.80;99.60;;;;;;5033602;28;20424;-93
2021/01/27 10:34:03;;;;;;;17.98;11.93;;;3.90;99.50;;;;;;5062622;28;20161;-87
2021/01/27 10:36:47;;;;;;;24.52;14.75;;;4.00;99.50;;;;;;5002502;28;20120;-89
2021/01/27 10:39:14;;;;;;;19.70;12.77;;;4.00;99.50;;;;;;5057945;28;20032;-92
2021/01/27 10:41:41;;;;;;;23.48;13.93;;;4.00;99.40;;;;;;5062429;28;20181;-88
2021/01/27 10:44:37;;;;;;;23.92;14.68;;;4.10;99.40;;;;;;5041340;28;20028;-90
2021/01/27 10:47:30;;;;;;;26.50;16.05;;;4.10;99.40;;;;;;5030476;28;20403;-91
2021/01/27 10:49:57;;;;;;;22.00;14.00;;;4.10;99.40;;;;;;5039236;28;20051;-91
2021/01/27 10:52:27;;;;;;;22.80;14.52;;;4.10;99.30;;;;;;5034318;28;20091;-90
2021/01/27 10:55:12;;;;;;;31.83;17.38;;;4.20;99.40;;;;;;5051775;28;20056;-88
2021/01/27 10:57:38;;;;;;;21.88;13.95;;;4.20;99.30;;;;;;5011313;28;20034;-84
2021/01/27 11:00:08;;;;;;;33.67;18.52;;;4.20;99.30;;;;;;5020884;28;20056;-88
2021/01/27 11:02:35;;;;;;;25.95;15.80;;;4.20;99.30;;;;;;5039106;28;20104;-87
2021/01/27 11:05:03;;;;;;;23.85;15.15;;;4.30;99.40;;;;;;5033564;28;20029;-87
2021/01/27 11:07:29;;;;;;;23.73;15.07;;;4.30;99.40;;;;;;5039162;28;20037;-89
2021/01/27 11:09:55;;;;;;;32.47;18.33;;;4.30;99.30;;;;;;5021627;28;20444;-89
2021/01/27 11:12:20;;;;;;;25.98;16.42;;;4.30;99.40;;;;;;5009697;28;20025;-90
2021/01/27 11:14:46;;;;;;;32.70;18.27;;;4.30;99.40;;;;;;5032027;28;20077;-86
2021/01/27 11:17:12;;;;;;;31.05;18.08;;;4.40;99.40;;;;;;5039002;28;20028;-87
2021/01/27 11:19:37;;;;;;;40.30;20.85;;;4.40;99.50;;;;;;5055494;28;20033;-89
2021/01/27 11:22:03;;;;;;;46.83;22.23;;;4.40;99.50;;;;;;5038775;28;20048;-88
2021/01/27 11:24:29;;;;;;;39.47;19.63;;;4.40;99.60;;;;;;5030973;28;20040;-88
2021/01/27 11:26:54;;;;;;;34.30;20.08;;;4.40;99.80;;;;;;5026967;28;20144;-89
2021/01/27 11:29:20;;;;;;;39.85;21.33;;;4.40;99.60;;;;;;5049088;28;20068;-88
2021/01/27 11:31:46;;;;;;;41.40;21.55;;;4.50;99.60;;;;;;5033836;28;20009;-88
2021/01/27 11:34:12;;;;;;;41.75;21.40;;;4.50;99.60;;;;;;5036562;28;20029;-88
2021/01/27 11:36:38;;;;;;;30.58;17.67;;;4.50;99.60;;;;;;5031976;28;20032;-89
2021/01/27 11:39:07;;;;;;;40.20;19.52;;;4.60;99.60;;;;;;5059810;28;20029;-88
2021/01/27 11:41:32;;;;;;;39.83;21.30;;;4.60;99.50;;;;;;5042558;28;20021;-88
2021/01/27 11:43:58;;;;;;;28.85;18.00;;;4.60;99.50;;;;;;5058269;28;20028;-88
2021/01/27 11:46:24;;;;;;;36.53;19.05;;;4.60;99.50;;;;;;5039541;28;20032;-88
2021/01/27 11:48:49;;;;;;;50.70;22.58;;;4.60;99.60;;;;;;5038361;28;20071;-88
2021/01/27 11:51:15;;;;;;;35.65;19.92;;;4.70;99.50;;;;;;5022489;28;20061;-89
2021/01/27 11:53:41;;;;;;;37.58;20.02;;;4.70;99.50;;;;;;5038653;28;20059;-90
2021/01/27 11:56:08;;;;;;;30.92;17.02;;;4.80;99.60;;;;;;5021138;28;20036;-88
2021/01/27 11:58:35;;;;;;;56.72;23.52;;;4.80;99.50;;;;;;5033965;28;20033;-89
2021/01/27 12:01:01;;;;;;;44.35;21.45;;;4.80;99.40;;;;;;5034984;28;20023;-88
2021/01/27 12:03:27;;;;;;;46.72;23.10;;;4.80;99.50;;;;;;5031223;28;20032;-88
2021/01/27 12:05:53;;;;;;;43.25;20.98;;;4.90;99.50;;;;;;5020898;28;20486;-85
2021/01/27 12:08:22;;;;;;;46.97;23.20;;;4.90;99.50;;;;;;5001256;28;20400;-86
2021/01/27 12:10:48;;;;;;;37.70;22.00;;;4.90;99.50;;;;;;5005934;28;20144;-87
2021/01/27 12:13:15;;;;;;;45.00;21.92;;;4.90;99.50;;;;;;5023521;28;20063;-89
2021/01/27 12:15:43;;;;;;;53.63;24.95;;;4.90;99.50;;;;;;5031141;28;20025;-90
2021/01/27 12:18:10;;;;;;;45.35;22.15;;;5.00;99.50;;;;;;5016746;28;20041;-89
2021/01/27 12:20:36;;;;;;;43.55;21.15;;;5.00;99.40;;;;;;5029412;28;20459;-87
2021/01/27 12:23:02;;;;;;;41.08;22.05;;;5.00;99.40;;;;;;5014508;28;20028;-89
2021/01/27 12:25:28;;;;;;;46.55;22.80;;;5.10;99.40;;;;;;5023382;28;20132;-88
2021/01/27 12:27:53;;;;;;;60.20;26.35;;;5.10;99.40;;;;;;5015070;28;20602;-88
2021/01/27 12:30:20;;;;;;;36.88;21.30;;;5.20;99.50;;;;;;5014591;28;20465;-87
2021/01/27 12:32:46;;;;;;;50.38;24.02;;;5.10;99.40;;;;;;5009504;28;20017;-89
2021/01/27 12:35:12;;;;;;;37.35;20.30;;;5.20;99.50;;;;;;5011428;28;20030;-89
2021/01/27 12:37:38;;;;;;;37.15;19.95;;;5.20;99.40;;;;;;4997211;28;20056;-85
2021/01/27 12:40:09;;;;;;;41.05;21.30;;;5.30;99.40;;;;;;5030662;28;20018;-84
2021/01/27 12:42:35;;;;;;;48.65;23.52;;;5.30;99.40;;;;;;5033209;28;20040;-89
2021/01/27 12:45:01;;;;;;;64.20;27.42;;;5.30;99.40;;;;;;4992746;28;20025;-85
2021/01/27 12:47:27;;;;;;;58.05;25.42;;;5.30;99.40;;;;;;5013016;28;20041;-85
2021/01/27 12:49:52;;;;;;;82.68;29.80;;;5.30;99.40;;;;;;4989039;28;20034;-84
2021/01/27 12:52:18;;;;;;;39.22;21.30;;;5.30;99.50;;;;;;5014144;28;20033;-85
2021/01/27 12:54:44;;;;;;;50.47;23.80;;;5.40;99.50;;;;;;5031377;28;20470;-86
2021/01/27 12:57:10;;;;;;;46.13;23.65;;;5.40;99.70;;;;;;4998422;28;20037;-86
2021/01/27 12:59:36;;;;;;;72.18;28.08;;;5.40;99.50;;;;;;5018679;28;20469;-86
2021/01/27 13:02:02;;;;;;;54.58;26.02;;;5.50;99.50;;;;;;5017843;28;20036;-85
2021/01/27 13:04:28;;;;;;;47.15;23.38;;;5.40;99.60;;;;;;4998253;28;20040;-85
2021/01/27 13:06:54;;;;;;;72.78;27.80;;;5.50;99.50;;;;;;5001635;28;20026;-86
2021/01/27 13:09:19;;;;;;;43.50;21.85;;;5.50;99.50;;;;;;4985702;28;20034;-86
2021/01/27 13:11:51;;;;;;;44.30;22.30;;;5.50;99.50;;;;;;5018506;28;20093;-85
2021/01/27 13:14:18;;;;;;;46.55;24.05;;;5.50;99.40;;;;;;5019105;28;20079;-86
2021/01/27 13:16:43;;;;;;;80.78;29.10;;;5.60;99.50;;;;;;4985419;28;20092;-86
2021/01/27 13:19:09;;;;;;;47.65;23.67;;;5.60;99.50;;;;;;4999501;28;20025;-87
2021/01/27 13:21:35;;;;;;;59.95;26.70;;;5.60;99.50;;;;;;5000775;28;20366;-87
2021/01/27 13:24:00;;;;;;;55.25;26.48;;;5.60;99.60;;;;;;5034841;28;20040;-86
2021/01/27 13:26:26;;;;;;;101.72;36.72;;;5.60;99.60;;;;;;5010181;28;20498;-86
2021/01/27 13:28:51;;;;;;;85.55;33.70;;;5.60;99.70;;;;;;5019961;28;20025;-86
2021/01/27 13:31:17;;;;;;;52.92;26.13;;;5.70;99.80;;;;;;5008486;28;20025;-87
2021/01/27 13:33:43;;;;;;;68.78;30.55;;;5.70;99.80;;;;;;4997923;28;20124;-87
2021/01/27 13:36:08;;;;;;;55.28;26.50;;;5.70;99.80;;;;;;5040049;28;20038;-87
2021/01/27 13:38:36;;;;;;;60.78;27.52;;;5.70;99.80;;;;;;4999728;28;20042;-86
2021/01/27 13:41:03;;;;;;;66.82;28.45;;;5.70;99.80;;;;;;5018976;28;20037;-86
2021/01/27 13:43:28;;;;;;;78.40;30.20;;;5.80;99.70;;;;;;5018202;28;20457;-86